Captain Ed — WDF6338 — position and weather

sailwx.info

Track history (hours):
 
Tides and Currents Weather Stations Pressure Air Temp Water Temp Dewpoint Dewpoint Depression Visibility Wind Speed Wind Dir Waves Ship Positions

Captain Ed

Owner: Norfolk Dredging Company, Chesapeake, VA. More information available from US FCC via Universal Licensing System and Coast Guard Vessel Documentation Center.

Last reported at 2017-Apr-27 17:45 UTC. Time now 2017-Apr-27 22:32 UTC.
Position N 36°55' W 076°20'.

Length 22 m; draft 3 m.

Type: Tug. MMSI: 367473210.

Date/timePositionNaut miles runAvg speedWind from/ knotsBaromVisibWave heightAir tempDewpointWater temp
2017-Apr-27 17:45N 36°55' W 076°20'0 0.0
2017-Apr-27 11:36N 36°55' W 076°21'0 0.0
2017-Apr-27 11:09N 36°55' W 076°21'0 0.0
2017-Apr-27 10:57N 36°55' W 076°21'0 0.0
2017-Apr-27 10:25N 36°55' W 076°21'0 0.0
2017-Apr-27 10:00N 36°55' W 076°21'0 0.0
2017-Apr-27 09:30N 36°55' W 076°21'0 0.0
2017-Apr-27 08:59N 36°55' W 076°21'0 0.0
2017-Apr-27 08:30N 36°55' W 076°21'0 0.0
2017-Apr-26 23:40N 36°55' W 076°21'0 0.0
2017-Apr-26 23:29N 36°55' W 076°21'0 0.0
2017-Apr-25 12:45N 36°55' W 076°21'0 0.0
2017-Apr-25 11:05N 36°55' W 076°20'0 0.0
2017-Apr-25 10:59N 36°55' W 076°20'0 0.0
2017-Apr-25 10:13N 36°55' W 076°20'0 0.0
2017-Apr-25 09:59N 36°55' W 076°20'0 0.0
2017-Apr-25 09:27N 36°55' W 076°20'0 0.0
2017-Apr-25 08:57N 36°55' W 076°20'0 0.0
2017-Apr-25 08:30N 36°55' W 076°20'0 0.0
2017-Apr-25 07:59N 36°55' W 076°20'0 0.0
2017-Apr-24 02:03N 36°55' W 076°21'0 0.0
2017-Apr-24 01:47N 36°55' W 076°21'0 0.0
2017-Apr-24 01:27N 36°55' W 076°21'0 0.0
2017-Apr-24 00:54N 36°55' W 076°21'0 0.0
2017-Apr-24 00:28N 36°55' W 076°21'0 0.0
2017-Apr-23 19:16N 36°55' W 076°21'0 0.0
2017-Apr-23 18:55N 36°55' W 076°21'0 0.0
2017-Apr-23 18:30N 36°55' W 076°21'0 0.0
2017-Apr-23 17:57N 36°55' W 076°21'0 0.0
2017-Apr-23 16:57N 36°55' W 076°21'0 0.0
2017-Apr-23 16:23N 36°55' W 076°21'0 0.0
2017-Apr-23 16:00N 36°55' W 076°21'0 0.0
2017-Apr-23 15:30N 36°55' W 076°21'0 0.0
2017-Apr-23 15:00N 36°55' W 076°21'2 0.0
2017-Apr-22 02:29N 36°53' W 076°20'1 0.0
2017-Apr-20 13:31N 36°54' W 076°20'0 7.2
2017-Apr-20 13:30N 36°54' W 076°20'1 2.0
2017-Apr-20 13:00N 36°53' W 076°20'2 0.0
2017-Apr-18 21:02N 36°54' W 076°20'0 6.0
2017-Apr-18 20:59N 36°54' W 076°20'2 3.7
2017-Apr-18 20:30N 36°52' W 076°21'0 0.0
2017-Apr-18 20:00N 36°52' W 076°21'2 2.4
2017-Apr-18 19:11N 36°54' W 076°20'1 5.3
2017-Apr-18 19:00N 36°53' W 076°20'1 0.1
2017-Apr-18 10:27N 36°54' W 076°20'4 9.0
2017-Apr-18 10:00N 36°51' W 076°18'4 8.1
2017-Apr-18 09:30N 36°47' W 076°18'3 6.9
2017-Apr-18 09:00N 36°44' W 076°16'1 2.2
2017-Apr-18 08:27N 36°43' W 076°15'  
Track history (hours):
 
Tides and Currents Weather Stations Pressure Air Temp Water Temp Dewpoint Dewpoint Depression Visibility Wind Speed Wind Dir Waves Ship Positions

Captain Ed

Owner: Norfolk Dredging Company, Chesapeake, VA. More information available from US FCC via Universal Licensing System and Coast Guard Vessel Documentation Center.

Last reported at 2017-Apr-27 17:45 UTC. Time now 2017-Apr-27 22:32 UTC.
Position N 36°55' W 076°20'.

Length 22 m; draft 3 m.

Type: Tug. MMSI: 367473210.

Date/timePositionNaut miles runAvg speedWind from/ knotsBaromVisibWave heightAir tempDewpointWater temp
2017-Apr-27 17:45N 36°55' W 076°20'0 0.0
2017-Apr-27 11:36N 36°55' W 076°21'0 0.0
2017-Apr-27 11:09N 36°55' W 076°21'0 0.0
2017-Apr-27 10:57N 36°55' W 076°21'0 0.0
2017-Apr-27 10:25N 36°55' W 076°21'0 0.0
2017-Apr-27 10:00N 36°55' W 076°21'0 0.0
2017-Apr-27 09:30N 36°55' W 076°21'0 0.0
2017-Apr-27 08:59N 36°55' W 076°21'0 0.0
2017-Apr-27 08:30N 36°55' W 076°21'0 0.0
2017-Apr-26 23:40N 36°55' W 076°21'0 0.0
2017-Apr-26 23:29N 36°55' W 076°21'0 0.0
2017-Apr-25 12:45N 36°55' W 076°21'0 0.0
2017-Apr-25 11:05N 36°55' W 076°20'0 0.0
2017-Apr-25 10:59N 36°55' W 076°20'0 0.0
2017-Apr-25 10:13N 36°55' W 076°20'0 0.0
2017-Apr-25 09:59N 36°55' W 076°20'0 0.0
2017-Apr-25 09:27N 36°55' W 076°20'0 0.0
2017-Apr-25 08:57N 36°55' W 076°20'0 0.0
2017-Apr-25 08:30N 36°55' W 076°20'0 0.0
2017-Apr-25 07:59N 36°55' W 076°20'0 0.0
2017-Apr-24 02:03N 36°55' W 076°21'0 0.0
2017-Apr-24 01:47N 36°55' W 076°21'0 0.0
2017-Apr-24 01:27N 36°55' W 076°21'0 0.0
2017-Apr-24 00:54N 36°55' W 076°21'0 0.0
2017-Apr-24 00:28N 36°55' W 076°21'0 0.0
2017-Apr-23 19:16N 36°55' W 076°21'0 0.0
2017-Apr-23 18:55N 36°55' W 076°21'0 0.0
2017-Apr-23 18:30N 36°55' W 076°21'0 0.0
2017-Apr-23 17:57N 36°55' W 076°21'0 0.0
2017-Apr-23 16:57N 36°55' W 076°21'0 0.0
2017-Apr-23 16:23N 36°55' W 076°21'0 0.0
2017-Apr-23 16:00N 36°55' W 076°21'0 0.0
2017-Apr-23 15:30N 36°55' W 076°21'0 0.0
2017-Apr-23 15:00N 36°55' W 076°21'2 0.0
2017-Apr-22 02:29N 36°53' W 076°20'1 0.0
2017-Apr-20 13:31N 36°54' W 076°20'0 7.2
2017-Apr-20 13:30N 36°54' W 076°20'1 2.0
2017-Apr-20 13:00N 36°53' W 076°20'2 0.0
2017-Apr-18 21:02N 36°54' W 076°20'0 6.0
2017-Apr-18 20:59N 36°54' W 076°20'2 3.7
2017-Apr-18 20:30N 36°52' W 076°21'0 0.0
2017-Apr-18 20:00N 36°52' W 076°21'2 2.4
2017-Apr-18 19:11N 36°54' W 076°20'1 5.3
2017-Apr-18 19:00N 36°53' W 076°20'1 0.1
2017-Apr-18 10:27N 36°54' W 076°20'4 9.0
2017-Apr-18 10:00N 36°51' W 076°18'4 8.1
2017-Apr-18 09:30N 36°47' W 076°18'3 6.9
2017-Apr-18 09:00N 36°44' W 076°16'1 2.2
2017-Apr-18 08:27N 36°43' W 076°15'  

Dump ship's entire track history